createdAt,value
2019-05-19T00:02:08.438Z,6.92
2019-05-19T00:04:36.978Z,6.70
2019-05-19T00:07:05.509Z,8.48
2019-05-19T00:09:33.964Z,6.30
2019-05-19T00:12:02.383Z,7.22
2019-05-19T00:14:30.834Z,7.67
2019-05-19T00:16:59.254Z,7.30
2019-05-19T00:19:27.787Z,8.83
2019-05-19T00:21:56.246Z,8.33
2019-05-19T00:24:25.149Z,9.90
2019-05-19T00:26:53.655Z,8.83
2019-05-19T00:29:22.075Z,8.78
2019-05-19T00:31:50.537Z,9.15
2019-05-19T00:34:19.031Z,8.60
2019-05-19T00:36:47.452Z,8.03
2019-05-19T00:39:15.899Z,8.88
2019-05-19T00:41:44.436Z,7.60
2019-05-19T00:44:12.904Z,9.13
2019-05-19T00:46:41.405Z,10.13
2019-05-19T00:49:09.916Z,8.75
2019-05-19T00:51:38.877Z,9.40
2019-05-19T00:54:07.425Z,9.48
2019-05-19T00:56:36.279Z,10.30
2019-05-19T00:59:05.328Z,8.63
2019-05-19T01:01:33.794Z,10.75
2019-05-19T01:04:02.287Z,11.43
2019-05-19T01:06:30.851Z,11.00
2019-05-19T01:08:59.449Z,11.80
2019-05-19T01:11:27.946Z,11.70
2019-05-19T01:13:56.371Z,12.23
2019-05-19T01:16:24.893Z,13.10
2019-05-19T01:18:53.324Z,13.38
2019-05-19T01:21:21.941Z,13.40
2019-05-19T01:23:50.432Z,11.70
2019-05-19T01:26:18.866Z,13.10
2019-05-19T01:28:47.288Z,16.02
2019-05-19T01:31:16.887Z,15.93
2019-05-19T01:33:45.315Z,13.30
2019-05-19T01:36:13.748Z,13.05
2019-05-19T01:38:42.285Z,12.93
2019-05-19T01:41:10.789Z,12.05
2019-05-19T01:43:39.230Z,12.90
2019-05-19T01:46:07.711Z,14.35
2019-05-19T01:48:36.154Z,14.75
2019-05-19T01:51:04.637Z,11.40
2019-05-19T01:53:33.112Z,12.75
2019-05-19T01:56:01.553Z,11.20
2019-05-19T01:58:30.020Z,9.50
2019-05-19T02:00:58.457Z,9.70
2019-05-19T02:03:26.867Z,9.60
2019-05-19T02:05:55.333Z,7.83
2019-05-19T02:08:23.900Z,7.83
2019-05-19T02:10:52.404Z,8.13
2019-05-19T02:13:20.913Z,8.00
2019-05-19T02:15:49.416Z,10.10
2019-05-19T02:18:17.886Z,7.75
2019-05-19T02:20:46.441Z,7.95
2019-05-19T02:23:14.924Z,6.92
2019-05-19T02:25:43.375Z,7.83
2019-05-19T02:28:11.871Z,8.43
2019-05-19T02:30:40.444Z,8.70
2019-05-19T02:33:08.861Z,9.53
2019-05-19T02:35:37.341Z,9.38
2019-05-19T02:38:05.900Z,8.60
2019-05-19T02:40:36.075Z,10.00
2019-05-19T02:43:04.867Z,9.38
2019-05-19T02:45:36.018Z,9.93
2019-05-19T02:48:05.798Z,9.98
2019-05-19T02:50:50.798Z,9.28
2019-05-19T02:53:08.885Z,10.43
2019-05-19T02:55:37.838Z,10.72
2019-05-19T02:58:06.930Z,10.50
2019-05-19T03:00:37.918Z,10.82
2019-05-19T03:03:08.662Z,11.05
2019-05-19T03:05:38.126Z,11.55
2019-05-19T03:08:06.739Z,11.88
2019-05-19T03:10:35.244Z,10.35
2019-05-19T03:13:03.816Z,11.22
2019-05-19T03:15:32.263Z,13.25
2019-05-19T03:18:00.693Z,12.65
2019-05-19T03:20:29.294Z,12.37
2019-05-19T03:22:57.736Z,15.30
2019-05-19T03:25:26.169Z,15.03
2019-05-19T03:27:54.630Z,14.98
2019-05-19T03:30:33.691Z,17.32
2019-05-19T03:33:03.778Z,12.88
2019-05-19T03:35:32.219Z,13.32
2019-05-19T03:38:00.658Z,13.32
2019-05-19T03:40:29.233Z,13.15
2019-05-19T03:42:57.616Z,14.18
2019-05-19T03:45:26.038Z,13.95
2019-05-19T03:47:54.545Z,13.00
2019-05-19T03:50:23.011Z,13.35
2019-05-19T03:52:51.448Z,13.55
2019-05-19T03:55:19.895Z,13.53
2019-05-19T03:57:48.355Z,12.98
2019-05-19T04:00:18.979Z,14.07
2019-05-19T04:02:47.380Z,13.00
2019-05-19T04:05:15.879Z,13.80
2019-05-19T04:07:44.355Z,14.00
2019-05-19T04:10:13.004Z,12.90
2019-05-19T04:12:41.529Z,13.28
2019-05-19T04:15:10.150Z,14.07
2019-05-19T04:17:38.577Z,12.50
2019-05-19T04:20:08.407Z,12.90
2019-05-19T04:22:37.074Z,13.00
2019-05-19T04:25:06.346Z,12.15
2019-05-19T04:27:34.798Z,12.20
2019-05-19T04:30:03.503Z,13.10
2019-05-19T04:32:31.973Z,12.70
2019-05-19T04:35:00.428Z,12.78
2019-05-19T04:37:28.861Z,12.23
2019-05-19T04:39:57.318Z,12.10
2019-05-19T04:42:25.776Z,12.78
2019-05-19T04:44:54.200Z,12.90
2019-05-19T04:47:22.676Z,13.90
2019-05-19T04:49:51.161Z,11.78
2019-05-19T04:52:19.561Z,12.25
2019-05-19T04:54:48.028Z,13.48
2019-05-19T04:57:16.457Z,12.20
2019-05-19T04:59:44.941Z,12.20
2019-05-19T05:02:13.386Z,12.93
2019-05-19T05:04:41.942Z,12.37
2019-05-19T05:07:10.374Z,12.13
2019-05-19T05:09:38.801Z,13.15
2019-05-19T05:12:07.329Z,13.08
2019-05-19T05:14:35.760Z,14.58
2019-05-19T05:17:04.291Z,14.85
2019-05-19T05:19:32.720Z,12.18
2019-05-19T05:22:01.146Z,15.30
2019-05-19T05:24:29.605Z,13.25
2019-05-19T05:26:58.027Z,13.48
2019-05-19T05:29:26.557Z,12.75
2019-05-19T05:31:55.014Z,13.70
2019-05-19T05:34:23.443Z,12.80
2019-05-19T05:36:51.982Z,12.07
2019-05-19T05:39:20.472Z,12.53
2019-05-19T05:41:48.891Z,11.65
2019-05-19T05:44:17.353Z,11.90
2019-05-19T05:46:45.849Z,12.47
2019-05-19T05:49:14.375Z,10.82
2019-05-19T05:51:42.809Z,11.55
2019-05-19T05:54:11.248Z,9.73
2019-05-19T05:56:40.041Z,11.03
2019-05-19T05:59:08.550Z,9.10
2019-05-19T06:01:37.005Z,9.48
2019-05-19T06:04:05.512Z,8.03
2019-05-19T06:06:33.970Z,8.35
2019-05-19T06:09:04.226Z,6.30
2019-05-19T06:11:32.693Z,6.47
2019-05-19T06:14:01.117Z,7.83
2019-05-19T06:16:29.573Z,8.35
2019-05-19T06:18:57.988Z,7.10
2019-05-19T06:21:26.407Z,6.78
2019-05-19T06:23:54.932Z,6.30
2019-05-19T06:26:23.343Z,8.25
2019-05-19T06:28:51.784Z,7.42
2019-05-19T06:31:20.332Z,7.30
2019-05-19T06:33:48.862Z,8.53
2019-05-19T06:36:17.356Z,7.65
2019-05-19T06:38:45.803Z,6.75
2019-05-19T06:41:14.245Z,6.60
2019-05-19T06:43:42.702Z,6.92
2019-05-19T06:46:11.112Z,7.10
2019-05-19T06:48:39.567Z,6.00
2019-05-19T06:51:07.997Z,9.05
2019-05-19T06:53:36.559Z,7.30
2019-05-19T06:56:04.979Z,6.45
2019-05-19T06:58:33.472Z,6.40
2019-05-19T07:01:02.098Z,6.55
2019-05-19T07:03:30.550Z,5.95
2019-05-19T07:05:58.975Z,6.20
2019-05-19T07:08:27.422Z,5.95
2019-05-19T07:10:55.907Z,5.45
2019-05-19T07:13:24.409Z,5.20
2019-05-19T07:15:52.947Z,5.20
2019-05-19T07:18:21.418Z,5.30
2019-05-19T07:20:49.954Z,5.67
2019-05-19T07:23:27.704Z,6.10
2019-05-19T07:25:48.556Z,5.33
2019-05-19T07:28:17.017Z,5.35
2019-05-19T07:30:45.491Z,5.53
2019-05-19T07:33:13.954Z,5.20
2019-05-19T07:35:42.411Z,4.87
2019-05-19T07:38:10.865Z,6.55
2019-05-19T07:40:39.318Z,8.80
2019-05-19T07:43:07.809Z,5.53
2019-05-19T07:45:36.343Z,5.22
2019-05-19T07:48:04.780Z,5.78
2019-05-19T07:50:33.202Z,4.42
2019-05-19T07:53:01.680Z,4.87
2019-05-19T07:55:30.282Z,5.30
2019-05-19T07:57:58.785Z,11.95
2019-05-19T08:00:27.306Z,12.85
2019-05-19T08:02:55.857Z,7.97
2019-05-19T08:05:24.273Z,4.62
2019-05-19T08:07:52.691Z,4.37
2019-05-19T08:10:21.223Z,3.80
2019-05-19T08:12:49.720Z,3.50
2019-05-19T08:15:18.820Z,3.62
2019-05-19T08:17:47.240Z,4.97
2019-05-19T08:20:17.199Z,4.03
2019-05-19T08:22:46.199Z,3.50
2019-05-19T08:25:15.330Z,4.00
2019-05-19T08:27:43.775Z,3.33
2019-05-19T08:30:12.673Z,3.10
2019-05-19T08:32:41.160Z,3.10
2019-05-19T08:35:09.728Z,3.20
2019-05-19T08:37:38.215Z,4.10
2019-05-19T08:40:07.396Z,3.25
2019-05-19T08:42:35.970Z,3.92
2019-05-19T08:45:06.745Z,3.15
2019-05-19T08:47:35.263Z,3.30
2019-05-19T08:50:07.692Z,3.67
2019-05-19T08:52:36.211Z,3.47
2019-05-19T08:55:05.591Z,4.37
2019-05-19T08:57:34.075Z,3.60
2019-05-19T09:00:02.618Z,3.27
2019-05-19T09:02:31.081Z,3.55
2019-05-19T09:04:59.529Z,3.85
2019-05-19T09:07:28.058Z,3.85
2019-05-19T09:09:56.584Z,4.15
2019-05-19T09:12:25.047Z,4.70
2019-05-19T09:14:53.473Z,3.80
2019-05-19T09:17:21.924Z,3.45
2019-05-19T09:19:50.378Z,3.50
2019-05-19T09:22:18.938Z,3.47
2019-05-19T09:24:47.365Z,3.45
2019-05-19T09:27:15.869Z,4.12
2019-05-19T09:29:44.370Z,3.47
2019-05-19T09:32:12.794Z,3.98
2019-05-19T09:34:41.260Z,3.02
2019-05-19T09:37:09.678Z,3.40
2019-05-19T09:39:38.113Z,3.40
2019-05-19T09:42:06.621Z,3.65
2019-05-19T09:44:35.069Z,3.30
2019-05-19T09:47:03.586Z,3.25
2019-05-19T09:49:32.414Z,3.80
2019-05-19T09:52:01.385Z,3.30
2019-05-19T09:54:44.251Z,3.37
2019-05-19T09:57:01.814Z,2.65
2019-05-19T09:59:30.409Z,3.10
2019-05-19T10:01:59.111Z,2.90
2019-05-19T10:04:27.572Z,3.00
2019-05-19T10:06:56.181Z,3.30
2019-05-19T10:09:36.765Z,3.98
2019-05-19T10:12:07.149Z,3.12
2019-05-19T10:14:35.591Z,3.35
2019-05-19T10:17:04.290Z,3.08
2019-05-19T10:19:32.875Z,3.20
2019-05-19T10:22:01.294Z,3.47
2019-05-19T10:24:29.852Z,3.35
2019-05-19T10:26:58.309Z,3.20
2019-05-19T10:29:26.799Z,3.72
2019-05-19T10:31:55.327Z,2.90
2019-05-19T10:34:23.775Z,3.60
2019-05-19T10:36:52.195Z,3.80
2019-05-19T10:39:20.657Z,3.08
2019-05-19T10:41:49.157Z,2.65
2019-05-19T10:44:17.609Z,3.70
2019-05-19T10:46:46.076Z,3.10
2019-05-19T10:49:14.569Z,2.90
2019-05-19T10:51:43.092Z,3.58
2019-05-19T10:54:11.610Z,3.50
2019-05-19T10:56:40.096Z,3.20
2019-05-19T10:59:08.571Z,3.47
2019-05-19T11:01:37.175Z,3.40
2019-05-19T11:04:05.747Z,2.70
2019-05-19T11:06:34.182Z,3.30
2019-05-19T11:09:02.792Z,2.80
2019-05-19T11:11:31.218Z,3.42
2019-05-19T11:13:59.701Z,2.83
2019-05-19T11:16:28.148Z,2.75
2019-05-19T11:18:56.570Z,2.75
2019-05-19T11:21:25.115Z,3.05
2019-05-19T11:23:53.596Z,3.10
2019-05-19T11:26:22.253Z,3.00
2019-05-19T11:28:50.776Z,3.02
2019-05-19T11:31:19.200Z,3.12
2019-05-19T11:33:47.612Z,3.90
2019-05-19T11:36:16.097Z,3.75
2019-05-19T11:38:44.547Z,5.67
2019-05-19T11:41:13.002Z,4.95
2019-05-19T11:43:41.469Z,4.28
2019-05-19T11:46:09.992Z,4.10
2019-05-19T11:48:38.434Z,3.83
2019-05-19T11:51:06.881Z,3.27
2019-05-19T11:53:35.382Z,3.42
2019-05-19T11:56:06.649Z,3.55
2019-05-19T11:58:34.083Z,3.85
2019-05-19T12:01:02.658Z,3.52
2019-05-19T12:03:31.128Z,8.73
2019-05-19T12:05:59.564Z,3.70
2019-05-19T12:08:29.781Z,3.87
2019-05-19T12:10:58.336Z,4.40
2019-05-19T12:13:26.832Z,4.78
2019-05-19T12:15:55.369Z,15.78
2019-05-19T12:18:23.791Z,11.97
2019-05-19T12:20:52.278Z,3.37
2019-05-19T12:23:20.734Z,3.72
2019-05-19T12:25:49.209Z,2.85
2019-05-19T12:28:17.726Z,3.60
2019-05-19T12:30:46.204Z,3.58
2019-05-19T12:33:14.762Z,3.25
2019-05-19T12:35:43.264Z,3.55
2019-05-19T12:38:11.765Z,2.90
2019-05-19T12:40:40.679Z,3.58
2019-05-19T12:43:09.094Z,3.67
2019-05-19T12:45:37.596Z,3.52
2019-05-19T12:48:06.040Z,3.55
2019-05-19T12:50:34.641Z,3.98
2019-05-19T12:53:03.213Z,4.00
2019-05-19T12:55:31.751Z,4.05
2019-05-19T12:58:00.209Z,3.58
2019-05-19T13:00:28.790Z,4.45
2019-05-19T13:02:57.473Z,4.28
2019-05-19T13:05:25.910Z,3.52
2019-05-19T13:07:54.479Z,3.55
2019-05-19T13:10:22.965Z,3.75
2019-05-19T13:12:51.614Z,3.15
2019-05-19T13:15:20.551Z,3.80
2019-05-19T13:17:48.994Z,3.55
2019-05-19T13:20:17.554Z,3.77
2019-05-19T13:22:46.036Z,3.15
2019-05-19T13:25:14.610Z,3.98
2019-05-19T13:27:43.104Z,3.70
2019-05-19T13:30:12.210Z,4.05
2019-05-19T13:32:40.786Z,4.05
2019-05-19T13:35:09.378Z,3.87
2019-05-19T13:37:37.878Z,4.05
2019-05-19T13:40:10.084Z,3.83
2019-05-19T13:42:38.513Z,4.05
2019-05-19T13:45:07.682Z,4.33
2019-05-19T13:47:36.448Z,3.80
2019-05-19T13:50:09.334Z,4.65
2019-05-19T13:52:37.767Z,3.98
2019-05-19T13:55:06.945Z,4.12
2019-05-19T13:57:35.509Z,3.75
2019-05-19T14:00:04.830Z,4.10
2019-05-19T14:02:33.297Z,3.65
2019-05-19T14:05:01.751Z,3.50
2019-05-19T14:07:30.215Z,4.58
2019-05-19T14:09:58.662Z,4.33
2019-05-19T14:12:27.092Z,4.65
2019-05-19T14:14:55.588Z,4.25
2019-05-19T14:17:24.052Z,4.37
2019-05-19T14:19:52.477Z,3.98
2019-05-19T14:22:21.045Z,4.40
2019-05-19T14:24:49.504Z,3.62
2019-05-19T14:27:29.638Z,4.40
2019-05-19T14:29:48.161Z,4.30
2019-05-19T14:32:16.620Z,4.62
2019-05-19T14:34:45.122Z,4.22
2019-05-19T14:37:13.543Z,4.45
2019-05-19T14:39:42.142Z,3.50
2019-05-19T14:42:12.199Z,3.45
2019-05-19T14:44:40.619Z,3.17
2019-05-19T14:47:09.235Z,3.30
2019-05-19T14:49:37.717Z,3.90
2019-05-19T14:52:06.317Z,3.70
2019-05-19T14:54:34.776Z,3.95
2019-05-19T14:57:03.216Z,5.00
2019-05-19T14:59:31.659Z,4.00
2019-05-19T15:02:00.072Z,3.95
2019-05-19T15:04:28.654Z,3.77
2019-05-19T15:06:57.101Z,4.10
2019-05-19T15:09:25.533Z,4.35
2019-05-19T15:11:53.987Z,4.50
2019-05-19T15:14:22.500Z,4.58
2019-05-19T15:16:50.924Z,4.30
2019-05-19T15:19:19.445Z,3.65
2019-05-19T15:21:47.971Z,4.87
2019-05-19T15:24:16.508Z,4.85
2019-05-19T15:26:44.941Z,4.72
2019-05-19T15:29:13.425Z,4.85
2019-05-19T15:31:41.850Z,4.60
2019-05-19T15:34:10.283Z,4.62
2019-05-19T15:36:38.836Z,4.55
2019-05-19T15:39:07.621Z,4.70
2019-05-19T15:41:36.123Z,4.58
2019-05-19T15:44:04.727Z,4.12
2019-05-19T15:46:33.270Z,4.22
2019-05-19T15:49:01.797Z,4.20
2019-05-19T15:51:37.154Z,4.08
2019-05-19T15:54:00.598Z,4.50
2019-05-19T15:56:29.137Z,5.20
2019-05-19T15:58:57.602Z,5.20
2019-05-19T16:01:26.062Z,5.60
2019-05-19T16:03:54.577Z,8.13
2019-05-19T16:06:23.013Z,6.80
2019-05-19T16:08:51.561Z,7.78
2019-05-19T16:11:20.066Z,6.17
2019-05-19T16:13:48.587Z,5.50
2019-05-19T16:16:18.552Z,6.08
2019-05-19T16:18:47.063Z,5.12
2019-05-19T16:21:15.622Z,5.17
2019-05-19T16:23:44.117Z,5.15
2019-05-19T16:26:12.580Z,6.20
2019-05-19T16:28:41.082Z,5.17
2019-05-19T16:31:09.601Z,4.85
2019-05-19T16:33:38.043Z,4.47
2019-05-19T16:36:08.038Z,5.12
2019-05-19T16:38:36.734Z,4.45
2019-05-19T16:41:05.269Z,5.33
2019-05-19T16:43:33.764Z,4.85
2019-05-19T16:46:02.279Z,4.80
2019-05-19T16:48:32.325Z,4.78
2019-05-19T16:51:02.421Z,4.20
2019-05-19T16:53:30.918Z,5.10
2019-05-19T16:55:59.364Z,5.03
2019-05-19T16:58:27.897Z,5.00
2019-05-19T17:00:58.172Z,4.42
2019-05-19T17:03:26.593Z,4.20
2019-05-19T17:05:55.181Z,3.87
2019-05-19T17:08:23.738Z,3.95
2019-05-19T17:10:52.158Z,3.80
2019-05-19T17:13:20.737Z,4.12
2019-05-19T17:15:49.279Z,4.10
2019-05-19T17:18:17.765Z,4.20
2019-05-19T17:20:46.247Z,4.50
2019-05-19T17:23:14.682Z,5.65
2019-05-19T17:25:43.202Z,4.20
2019-05-19T17:28:11.793Z,3.90
2019-05-19T17:30:40.428Z,4.20
2019-05-19T17:33:08.914Z,3.98
2019-05-19T17:35:37.347Z,4.22
2019-05-19T17:38:05.920Z,4.60
2019-05-19T17:40:34.343Z,4.30
2019-05-19T17:43:02.771Z,3.60
2019-05-19T17:45:31.312Z,4.10
2019-05-19T17:48:09.545Z,3.67
2019-05-19T17:50:34.819Z,4.17
2019-05-19T17:53:03.880Z,4.00
2019-05-19T17:55:34.950Z,4.08
2019-05-19T17:58:04.517Z,4.37
2019-05-19T18:00:39.018Z,4.42
2019-05-19T18:03:07.978Z,4.45
2019-05-19T18:05:36.636Z,4.08
2019-05-19T18:08:06.015Z,4.67
2019-05-19T18:10:34.616Z,4.20
2019-05-19T18:13:03.229Z,3.83
2019-05-19T18:15:31.757Z,4.50
2019-05-19T18:18:00.405Z,4.70
2019-05-19T18:20:29.022Z,4.60
2019-05-19T18:22:57.532Z,4.10
2019-05-19T18:25:26.230Z,4.37
2019-05-19T18:27:54.765Z,3.90
2019-05-19T18:30:23.249Z,3.30
2019-05-19T18:32:51.748Z,2.70
2019-05-19T18:35:20.244Z,3.10
2019-05-19T18:37:51.237Z,2.30
2019-05-19T18:40:19.946Z,2.05
2019-05-19T18:42:48.504Z,2.10
2019-05-19T18:45:17.108Z,5.90
2019-05-19T18:47:45.518Z,5.90
2019-05-19T18:50:14.159Z,3.60
2019-05-19T18:52:42.711Z,2.70
2019-05-19T18:55:11.354Z,8.95
2019-05-19T18:57:39.812Z,9.85
2019-05-19T19:00:08.583Z,3.35
2019-05-19T19:02:37.209Z,4.40
2019-05-19T19:05:07.362Z,5.37
2019-05-19T19:07:52.308Z,4.53
2019-05-19T19:10:20.912Z,4.05
2019-05-19T19:12:49.455Z,4.10
2019-05-19T19:15:18.096Z,4.92
2019-05-19T19:17:46.663Z,5.40
2019-05-19T19:20:15.460Z,4.30
2019-05-19T19:22:43.964Z,4.30
2019-05-19T19:25:12.516Z,3.90
2019-05-19T19:27:41.108Z,5.50
2019-05-19T19:30:10.508Z,3.60
2019-05-19T19:32:39.020Z,3.05
2019-05-19T19:35:08.364Z,2.35
2019-05-19T19:37:36.891Z,3.00
2019-05-19T19:40:07.068Z,2.45
2019-05-19T19:42:35.495Z,2.52
2019-05-19T19:45:04.832Z,2.40
2019-05-19T19:47:33.342Z,2.60
2019-05-19T19:50:01.805Z,2.85
2019-05-19T19:52:30.312Z,2.60
2019-05-19T19:54:58.783Z,2.55
2019-05-19T19:57:27.258Z,2.80
2019-05-19T19:59:55.715Z,5.40
2019-05-19T20:02:24.343Z,4.08
2019-05-19T20:04:52.780Z,3.85
2019-05-19T20:07:21.283Z,3.45
2019-05-19T20:09:49.935Z,3.45
2019-05-19T20:12:18.351Z,3.20
2019-05-19T20:14:47.245Z,2.67
2019-05-19T20:17:15.717Z,2.80
2019-05-19T20:19:44.208Z,2.62
2019-05-19T20:22:12.733Z,2.72
2019-05-19T20:24:41.159Z,3.05
2019-05-19T20:27:09.719Z,3.30
2019-05-19T20:29:38.260Z,2.95
2019-05-19T20:32:06.802Z,2.62
2019-05-19T20:34:35.295Z,3.20
2019-05-19T20:37:03.900Z,3.20
2019-05-19T20:39:32.401Z,3.00
2019-05-19T20:42:00.868Z,3.70
2019-05-19T20:44:29.292Z,3.80
2019-05-19T20:46:57.816Z,3.95
2019-05-19T20:49:26.320Z,3.50
2019-05-19T20:51:54.794Z,4.20
2019-05-19T20:54:23.268Z,3.20
2019-05-19T20:56:51.682Z,3.50
2019-05-19T20:59:20.155Z,3.50
2019-05-19T21:01:48.657Z,2.70
2019-05-19T21:04:17.243Z,3.17
2019-05-19T21:06:45.721Z,2.33
2019-05-19T21:09:14.407Z,2.37
2019-05-19T21:11:42.865Z,2.42
2019-05-19T21:14:11.319Z,2.20
2019-05-19T21:16:39.763Z,2.50
2019-05-19T21:19:08.276Z,2.10
2019-05-19T21:21:36.696Z,2.00
2019-05-19T21:24:05.206Z,2.20
2019-05-19T21:26:33.621Z,2.30
2019-05-19T21:29:02.152Z,2.22
2019-05-19T21:31:30.715Z,2.35
2019-05-19T21:33:59.149Z,2.83
2019-05-19T21:36:27.630Z,2.35
2019-05-19T21:38:56.115Z,2.72
2019-05-19T21:41:24.791Z,3.20
2019-05-19T21:43:53.305Z,2.55
2019-05-19T21:46:21.831Z,1.85
2019-05-19T21:48:50.246Z,1.55
2019-05-19T21:51:18.662Z,2.10
2019-05-19T21:53:48.193Z,1.87
2019-05-19T21:56:16.692Z,1.42
2019-05-19T21:58:45.108Z,1.87
2019-05-19T22:01:22.895Z,1.77
2019-05-19T22:03:44.080Z,1.55
2019-05-19T22:06:12.637Z,2.05
2019-05-19T22:08:41.159Z,1.30
2019-05-19T22:11:09.644Z,1.02
2019-05-19T22:13:38.099Z,1.05
2019-05-19T22:16:13.088Z,1.40
2019-05-19T22:18:36.889Z,1.77
2019-05-19T22:21:05.446Z,1.72
2019-05-19T22:23:33.974Z,2.20
2019-05-19T22:26:02.380Z,1.80
2019-05-19T22:28:30.828Z,2.02
2019-05-19T22:30:59.432Z,2.65
2019-05-19T22:33:27.853Z,2.08
2019-05-19T22:35:56.314Z,2.02
2019-05-19T22:38:24.793Z,1.80
2019-05-19T22:40:53.213Z,1.95
2019-05-19T22:43:21.716Z,2.30
2019-05-19T22:45:50.121Z,2.10
2019-05-19T22:48:18.553Z,2.12
2019-05-19T22:50:47.021Z,1.67
2019-05-19T22:53:15.448Z,1.50
2019-05-19T22:55:43.975Z,1.90
2019-05-19T22:58:12.407Z,1.80
2019-05-19T23:00:41.004Z,2.20
2019-05-19T23:03:09.454Z,2.50
2019-05-19T23:05:37.944Z,2.50
2019-05-19T23:08:06.417Z,2.00
2019-05-19T23:10:34.896Z,2.42
2019-05-19T23:13:03.402Z,2.70
2019-05-19T23:15:31.929Z,2.62
2019-05-19T23:18:00.420Z,2.83
2019-05-19T23:20:28.860Z,3.27
2019-05-19T23:22:57.378Z,3.65
2019-05-19T23:25:25.827Z,4.15
2019-05-19T23:27:54.250Z,4.17
2019-05-19T23:30:23.035Z,5.50
2019-05-19T23:32:51.521Z,5.33
2019-05-19T23:35:19.988Z,5.50
2019-05-19T23:37:48.725Z,5.47
2019-05-19T23:40:17.221Z,6.20
2019-05-19T23:42:45.740Z,6.28
2019-05-19T23:45:14.229Z,5.33
2019-05-19T23:47:42.661Z,6.37
2019-05-19T23:50:11.986Z,4.40
2019-05-19T23:52:40.499Z,3.80
2019-05-19T23:55:09.066Z,3.27
2019-05-19T23:57:37.518Z,2.62
